Time;durP1;ratioP1;P1;durP2;ratioP2;P2;SDS_P1;SDS_P2;PMS_P1;PMS_P2;Temp;Humidity;BMP_temperature;BMP_pressure;BME280_temperature;BME280_humidity;BME280_pressure;Samples;Min_cycle;Max_cycle;Signal;HPM_P1;HPM_P2
2022/10/26 00:01:36;;;;;;;2.88;1.52;;;;;;;12.32;100.00;98523.72;4118731;28;20202;-47
2022/10/26 00:03:39;;;;;;;4.78;2.08;;;;;;;12.31;100.00;98530.28;4107063;28;20218;-48
2022/10/26 00:05:41;;;;;;;2.03;1.67;;;;;;;12.35;100.00;98538.81;4137293;28;20678;-46
2022/10/26 00:07:43;;;;;;;4.15;1.83;;;;;;;12.38;100.00;98543.81;4134945;28;20751;-47
2022/10/26 00:09:45;;;;;;;1.60;1.50;;;;;;;12.50;100.00;98533.50;4106295;28;20210;-46
2022/10/26 00:11:49;;;;;;;2.47;1.27;;;;;;;12.36;100.00;98535.81;4112852;28;20306;-46
2022/10/26 00:13:51;;;;;;;1.63;1.48;;;;;;;12.36;100.00;98535.81;4107766;28;20314;-47
2022/10/26 00:15:54;;;;;;;3.10;1.55;;;;;;;12.39;100.00;98529.81;4120885;28;20325;-46
2022/10/26 00:17:55;;;;;;;2.00;1.35;;;;;;;12.39;100.00;98531.72;4136701;28;20213;-47
2022/10/26 00:19:59;;;;;;;1.40;1.27;;;;;;;12.43;100.00;98525.47;4134476;28;20328;-47
2022/10/26 00:22:01;;;;;;;3.90;1.55;;;;;;;12.30;100.00;98517.66;4119500;28;20702;-47
2022/10/26 00:24:03;;;;;;;1.38;1.27;;;;;;;12.27;100.00;98520.94;4119187;28;20224;-46
2022/10/26 00:26:05;;;;;;;1.38;1.27;;;;;;;12.29;100.00;98524.25;4137383;28;20300;-46
2022/10/26 00:28:07;;;;;;;1.35;1.25;;;;;;;12.34;100.00;98521.53;4134608;28;20719;-47
2022/10/26 00:30:09;;;;;;;1.98;1.52;;;;;;;12.31;100.00;98522.06;4120282;28;20242;-46
2022/10/26 00:32:11;;;;;;;1.60;1.05;;;;;;;12.14;100.00;98518.63;4118607;28;20206;-46
2022/10/26 00:34:12;;;;;;;3.17;1.73;;;;;;;12.14;100.00;98521.34;4122399;28;20206;-47
2022/10/26 00:36:15;;;;;;;1.40;1.10;;;;;;;12.06;100.00;98523.75;4123283;28;20280;-46
2022/10/26 00:38:17;;;;;;;1.42;1.25;;;;;;;12.15;100.00;98509.28;4120157;28;20260;-47
2022/10/26 00:40:19;;;;;;;2.15;1.80;;;;;;;12.17;100.00;98518.09;4121492;28;20221;-46
2022/10/26 00:42:23;;;;;;;3.17;2.35;;;;;;;12.21;100.00;98510.16;4124311;28;20293;-46
2022/10/26 00:44:45;;;;;;;2.47;1.60;;;;;;;12.22;100.00;98517.28;4123233;28;20206;-46
2022/10/26 00:46:47;;;;;;;1.70;1.60;;;;;;;12.15;100.00;98517.53;4123975;28;20313;-47
2022/10/26 00:49:01;;;;;;;1.52;1.25;;;;;;;12.13;100.00;98514.22;4115031;28;20838;-47
2022/10/26 00:51:08;;;;;;;1.58;1.35;;;;;;;12.13;100.00;98508.75;4118974;28;20206;-46
2022/10/26 00:53:11;;;;;;;1.92;1.25;;;;;;;12.22;100.00;98507.16;4121642;28;20301;-46
2022/10/26 00:55:12;;;;;;;6.05;1.52;;;;;;;12.20;100.00;98506.59;4113188;28;20241;-47
2022/10/26 00:57:14;;;;;;;1.40;1.30;;;;;;;12.35;100.00;98500.41;4118159;28;20220;-46
2022/10/26 00:59:16;;;;;;;1.80;1.38;;;;;;;12.27;100.00;98509.13;4118726;28;20209;-46
2022/10/26 01:01:18;;;;;;;2.17;1.65;;;;;;;12.24;100.00;98510.47;4109636;28;20207;-46
2022/10/26 01:03:23;;;;;;;1.88;1.17;;;;;;;12.25;100.00;98497.59;4115544;28;20296;-46
2022/10/26 01:05:26;;;;;;;1.40;1.30;;;;;;;12.26;100.00;98500.06;4113879;28;20230;-46
2022/10/26 01:07:27;;;;;;;1.60;1.50;;;;;;;12.28;100.00;98503.38;4119704;28;20317;-46
2022/10/26 01:09:31;;;;;;;1.20;1.08;;;;;;;12.30;100.00;98501.19;4105935;28;20214;-46
2022/10/26 01:11:32;;;;;;;1.83;1.55;;;;;;;12.31;100.00;98496.53;4120107;28;20861;-45
2022/10/26 01:13:35;;;;;;;1.30;1.20;;;;;;;12.31;100.00;98489.13;4118744;28;20252;-47
2022/10/26 01:15:55;;;;;;;1.13;1.02;;;;;;;12.31;100.00;98489.13;4118426;28;20240;-47
2022/10/26 01:18:13;;;;;;;1.42;1.33;;;;;;;12.36;100.00;98494.66;4101219;28;20235;-56
2022/10/26 01:20:36;;;;;;;1.05;1.00;;;;;;;12.33;100.00;98492.44;4117694;28;20233;-47
2022/10/26 01:22:42;;;;;;;1.98;1.88;;;;;;;12.34;100.00;98491.34;4117469;28;20217;-47
2022/10/26 01:24:58;;;;;;;1.20;1.10;;;;;;;12.37;100.00;98499.06;4121081;28;20217;-46
2022/10/26 01:27:22;;;;;;;1.70;1.60;;;;;;;12.34;100.00;98494.09;4122174;28;20324;-46
2022/10/26 01:29:27;;;;;;;1.10;0.90;;;;;;;12.43;100.00;98503.50;4102559;28;20202;-47
2022/10/26 01:31:35;;;;;;;1.33;1.20;;;;;;;12.46;100.00;98502.16;4119284;28;20292;-47
2022/10/26 01:33:40;;;;;;;1.52;1.33;;;;;;;12.45;100.00;98501.31;4131360;28;20285;-46
2022/10/26 01:36:43;;;;;;;1.55;1.45;;;;;;;12.39;100.00;98496.91;4120457;28;20230;-46
2022/10/26 01:39:06;;;;;;;0.90;0.90;;;;;;;12.34;100.00;98494.09;4085538;28;20215;-47
2022/10/26 01:41:19;;;;;;;1.15;1.15;;;;;;;12.41;100.00;98488.38;4117255;28;20229;-46
2022/10/26 01:43:21;;;;;;;1.40;1.17;;;;;;;12.43;100.00;98487.03;4133426;28;20348;-47
2022/10/26 01:45:24;;;;;;;2.30;1.17;;;;;;;12.45;100.00;98479.34;4107618;28;20210;-47
2022/10/26 01:47:26;;;;;;;3.70;2.10;;;;;;;12.43;100.00;98473.31;4123355;28;20213;-46
2022/10/26 01:49:32;;;;;;;1.45;1.35;;;;;;;12.47;100.00;98477.19;4119423;28;20694;-46
2022/10/26 01:51:34;;;;;;;1.67;1.58;;;;;;;12.37;100.00;98479.84;4134397;28;20216;-47
2022/10/26 01:53:41;;;;;;;1.33;1.23;;;;;;;12.35;100.00;98478.44;4137742;28;20206;-46
2022/10/26 01:55:47;;;;;;;2.17;1.73;;;;;;;12.28;100.00;98478.69;4119670;28;20226;-47
2022/10/26 01:57:50;;;;;;;3.22;1.67;;;;;;;12.30;100.00;98479.25;4121211;28;20214;-47
2022/10/26 02:00:06;;;;;;;2.28;1.63;;;;;;;12.27;100.00;98482.53;4119553;28;20297;-47
2022/10/26 02:02:27;;;;;;;0.93;0.93;;;;;;;12.29;100.00;98487.72;4126457;28;20237;-47
2022/10/26 02:04:48;;;;;;;1.77;1.13;;;;;;;12.28;100.00;98486.91;4127885;28;20233;-46
2022/10/26 02:07:11;;;;;;;1.40;1.30;;;;;;;12.29;100.00;98474.00;4124208;28;20237;-46
2022/10/26 02:09:30;;;;;;;4.00;1.17;;;;;;;12.29;100.00;98476.75;4140122;28;20207;-46
2022/10/26 02:11:45;;;;;;;1.67;1.58;;;;;;;12.31;100.00;98478.16;4103435;28;20208;-46
2022/10/26 02:13:54;;;;;;;1.17;1.08;;;;;;;12.25;100.00;98473.69;4108711;28;20294;-47
2022/10/26 02:16:00;;;;;;;3.53;2.28;;;;;;;12.36;100.00;98478.19;4123695;28;20236;-47
2022/10/26 02:18:27;;;;;;;1.23;1.13;;;;;;;12.29;100.00;98485.81;4107767;28;20294;-47
2022/10/26 02:20:37;;;;;;;1.98;1.30;;;;;;;12.36;100.00;98478.19;4135902;28;20297;-47
2022/10/26 02:22:43;;;;;;;1.40;1.15;;;;;;;12.36;100.00;98480.94;4122124;28;20214;-46
2022/10/26 02:24:47;;;;;;;1.13;1.02;;;;;;;12.30;100.00;98481.97;4120767;28;20202;-47
2022/10/26 02:26:49;;;;;;;2.08;1.20;;;;;;;12.29;100.00;98491.31;4123645;28;20257;-46
2022/10/26 02:28:54;;;;;;;1.52;1.10;;;;;;;12.35;100.00;98498.50;4125174;28;20249;-46
2022/10/26 02:30:57;;;;;;;1.88;1.33;;;;;;;12.35;100.00;98494.91;4126510;28;20210;-47
2022/10/26 02:32:59;;;;;;;2.00;1.30;;;;;;;12.36;100.00;98472.72;4108886;28;20297;-47
2022/10/26 02:35:02;;;;;;;1.92;1.10;;;;;;;12.28;100.00;98467.72;4121056;28;20234;-46
2022/10/26 02:37:04;;;;;;;1.60;1.25;;;;;;;12.24;100.00;98463.00;4108937;28;20237;-46
2022/10/26 02:39:06;;;;;;;1.80;1.50;;;;;;;12.20;100.00;98479.16;4122854;28;20260;-46
2022/10/26 02:41:10;;;;;;;2.22;1.38;;;;;;;12.21;100.00;98507.41;4125971;28;20284;-47
2022/10/26 02:43:14;;;;;;;1.30;1.30;;;;;;;12.36;100.00;98516.63;4109697;28;20211;-46
2022/10/26 02:45:20;;;;;;;2.28;1.33;;;;;;;12.29;100.00;98516.00;4119719;28;20627;-48
2022/10/26 02:47:22;;;;;;;3.10;1.38;;;;;;;12.28;100.00;98517.09;4121680;28;20229;-46
2022/10/26 02:49:24;;;;;;;1.30;1.20;;;;;;;12.33;100.00;98519.91;4121486;28;20257;-46
2022/10/26 02:51:51;;;;;;;2.25;1.75;;;;;;;12.34;100.00;98521.53;4110444;28;20727;-46
2022/10/26 02:54:23;;;;;;;4.00;1.63;;;;;;;12.33;100.00;98522.63;4125374;28;20668;-47
2022/10/26 02:56:55;;;;;;;2.63;1.38;;;;;;;12.25;100.00;98512.13;4101183;28;20252;-48
2022/10/26 02:59:00;;;;;;;1.00;0.98;;;;;;;12.27;100.00;98515.44;4121884;28;20664;-47
2022/10/26 03:01:02;;;;;;;1.30;1.20;;;;;;;12.17;100.00;98498.88;4105103;28;20286;-47
2022/10/26 03:03:03;;;;;;;2.47;1.38;;;;;;;12.16;100.00;98497.22;4122480;28;20372;-47
2022/10/26 03:05:18;;;;;;;2.30;1.25;;;;;;;12.10;100.00;98498.25;4113931;28;20207;-47
2022/10/26 03:07:23;;;;;;;1.88;1.30;;;;;;;12.01;100.00;98502.59;4124648;28;20335;-47
2022/10/26 03:09:25;;;;;;;1.50;1.40;;;;;;;12.10;100.00;98502.94;4140762;28;20697;-46
2022/10/26 03:11:27;;;;;;;2.33;1.25;;;;;;;12.10;100.00;98503.75;4122742;28;20290;-46
2022/10/26 03:13:29;;;;;;;1.95;1.08;;;;;;;12.15;100.00;98497.47;4123742;28;20700;-46
2022/10/26 03:15:30;;;;;;;1.35;1.25;;;;;;;12.24;100.00;98491.25;4119171;28;20613;-46
2022/10/26 03:17:32;;;;;;;1.42;1.33;;;;;;;12.20;100.00;98492.88;4120176;28;20213;-47
2022/10/26 03:19:34;;;;;;;1.30;1.20;;;;;;;12.22;100.00;98487.97;4121658;28;20210;-46
2022/10/26 03:21:35;;;;;;;1.60;1.02;;;;;;;12.29;100.00;98491.31;4137800;28;20317;-47
2022/10/26 03:23:37;;;;;;;1.27;0.98;;;;;;;12.29;100.00;98480.34;4105214;28;20213;-47
2022/10/26 03:25:39;;;;;;;1.63;1.50;;;;;;;12.25;100.00;98484.69;4115704;28;20310;-47
2022/10/26 03:27:41;;;;;;;1.63;1.52;;;;;;;12.28;100.00;98473.19;4123375;28;20213;-46
2022/10/26 03:29:42;;;;;;;10.18;1.08;;;;;;;12.24;100.00;98477.53;4117939;28;20684;-48
2022/10/26 03:31:44;;;;;;;1.33;1.23;;;;;;;12.24;100.00;98477.53;4135782;28;20210;-46
2022/10/26 03:33:46;;;;;;;1.52;1.35;;;;;;;12.21;100.00;98471.75;4118759;28;20206;-46
2022/10/26 03:35:53;;;;;;;1.23;1.13;;;;;;;12.16;100.00;98469.00;4120235;28;20755;-46
2022/10/26 03:37:55;;;;;;;1.42;1.33;;;;;;;12.28;100.00;98467.72;4099793;28;20620;-47
2022/10/26 03:39:57;;;;;;;1.25;1.10;;;;;;;12.17;100.00;98471.44;4118287;28;20205;-46
2022/10/26 03:41:58;;;;;;;1.40;1.30;;;;;;;12.15;100.00;98473.63;4119794;28;20301;-46
2022/10/26 03:44:00;;;;;;;2.15;1.10;;;;;;;12.16;100.00;98469.78;4117855;28;20664;-47
2022/10/26 03:46:01;;;;;;;1.60;1.42;;;;;;;12.28;100.00;98467.72;4120133;28;20301;-47
2022/10/26 03:48:03;;;;;;;1.55;1.30;;;;;;;12.34;100.00;98466.66;4123375;28;20213;-46
2022/10/26 03:50:05;;;;;;;1.20;1.10;;;;;;;12.21;100.00;98460.78;4118270;28;20265;-46
2022/10/26 03:52:07;;;;;;;1.30;1.20;;;;;;;12.32;100.00;98457.88;4135778;28;20296;-46
2022/10/26 03:54:08;;;;;;;1.35;1.25;;;;;;;12.22;100.00;98452.28;4137915;28;20237;-46
2022/10/26 03:56:10;;;;;;;1.42;1.23;;;;;;;12.18;100.00;98456.63;4122685;28;20237;-46
2022/10/26 03:58:12;;;;;;;1.48;1.38;;;;;;;12.19;100.00;98455.56;4122020;28;20706;-46
2022/10/26 04:00:16;;;;;;;2.53;1.67;;;;;;;12.19;100.00;98462.97;4123309;28;20258;-46
2022/10/26 04:02:18;;;;;;;1.35;1.20;;;;;;;12.21;100.00;98456.13;4119630;28;20211;-47
2022/10/26 04:04:19;;;;;;;1.80;1.38;;;;;;;12.17;100.00;98452.25;4134947;28;20202;-46
2022/10/26 04:06:21;;;;;;;3.75;1.58;;;;;;;12.19;100.00;98452.84;4119155;28;21118;-47
2022/10/26 04:08:23;;;;;;;1.65;1.42;;;;;;;12.21;100.00;98456.13;4122561;28;20208;-47
2022/10/26 04:10:26;;;;;;;2.55;1.77;;;;;;;12.20;100.00;98456.38;4124126;28;20206;-46
2022/10/26 04:12:28;;;;;;;1.30;1.20;;;;;;;12.18;100.00;98462.13;4121130;28;20209;-46
2022/10/26 04:14:29;;;;;;;4.18;2.20;;;;;;;12.19;100.00;98458.31;4117822;28;20206;-46
2022/10/26 04:16:31;;;;;;;1.35;1.25;;;;;;;12.12;100.00;98452.19;4118681;28;20311;-47
2022/10/26 04:18:34;;;;;;;1.17;1.08;;;;;;;12.13;100.00;98455.78;4119751;28;20316;-47
2022/10/26 04:20:37;;;;;;;1.90;1.40;;;;;;;12.19;100.00;98455.56;4110677;28;20234;-48
2022/10/26 04:22:39;;;;;;;1.45;1.10;;;;;;;12.09;100.00;98452.72;4118104;28;21356;-47
2022/10/26 04:24:41;;;;;;;1.92;1.35;;;;;;;12.08;100.00;98455.72;4108509;28;20229;-48
2022/10/26 04:26:44;;;;;;;3.75;1.15;;;;;;;12.02;100.00;98463.09;4102186;28;20345;-47
2022/10/26 04:28:45;;;;;;;1.27;1.15;;;;;;;12.17;100.00;98460.47;4133666;28;20288;-46
2022/10/26 04:30:47;;;;;;;1.40;1.30;;;;;;;12.05;100.00;98451.59;4118623;28;20800;-46
2022/10/26 04:32:49;;;;;;;1.55;1.15;;;;;;;11.89;100.00;98455.28;4114015;28;20301;-46
2022/10/26 04:34:53;;;;;;;1.10;1.00;;;;;;;11.83;100.00;98464.56;4120515;28;20268;-47
2022/10/26 04:36:55;;;;;;;1.20;1.20;;;;;;;11.86;100.00;98468.69;4119622;28;20252;-46
2022/10/26 04:38:56;;;;;;;1.20;1.13;;;;;;;11.90;100.00;98465.16;4120131;28;20206;-47
2022/10/26 04:40:58;;;;;;;0.82;0.82;;;;;;;11.87;100.00;98460.22;4113820;28;20306;-46
2022/10/26 04:43:00;;;;;;;1.42;1.25;;;;;;;11.88;100.00;98461.03;4117204;28;20288;-46
2022/10/26 04:45:02;;;;;;;2.53;1.42;;;;;;;11.96;100.00;98461.38;4120025;28;20213;-46
2022/10/26 04:47:03;;;;;;;1.85;1.67;;;;;;;11.86;100.00;98463.22;4122795;28;20226;-47
2022/10/26 04:49:05;;;;;;;1.27;1.15;;;;;;;11.87;100.00;98460.22;4117163;28;20264;-47
2022/10/26 04:51:07;;;;;;;2.50;1.15;;;;;;;11.92;100.00;98465.72;4117473;28;20240;-47
2022/10/26 04:53:09;;;;;;;1.60;1.50;;;;;;;11.97;100.00;98454.81;4115633;28;20236;-46
2022/10/26 04:55:10;;;;;;;1.23;1.13;;;;;;;11.86;100.00;98464.03;4116272;28;20214;-47
2022/10/26 04:57:12;;;;;;;2.28;1.30;;;;;;;11.86;100.00;98464.03;4117200;28;20232;-46
2022/10/26 04:59:14;;;;;;;2.17;1.20;;;;;;;11.87;100.00;98462.97;4119004;28;20230;-47
2022/10/26 05:01:16;;;;;;;1.10;1.00;;;;;;;11.87;100.00;98454.72;4115218;28;20938;-46
2022/10/26 05:03:18;;;;;;;2.22;1.48;;;;;;;11.87;100.00;98462.97;4115872;28;21589;-47
2022/10/26 05:05:19;;;;;;;1.27;1.20;;;;;;;11.82;100.00;98462.91;4114712;28;20292;-47
2022/10/26 05:07:21;;;;;;;2.17;1.90;;;;;;;12.04;100.00;98460.09;4106457;28;20626;-46
2022/10/26 05:09:23;;;;;;;2.38;2.28;;;;;;;11.77;100.00;98473.81;4101414;28;20310;-47
2022/10/26 05:11:25;;;;;;;1.15;1.10;;;;;;;11.80;100.00;98470.56;4118305;28;20304;-47
2022/10/26 05:13:28;;;;;;;1.35;1.30;;;;;;;11.93;100.00;98475.63;4138104;28;20602;-46
2022/10/26 05:15:30;;;;;;;2.15;1.33;;;;;;;11.65;100.00;98475.88;4119527;28;20616;-46
2022/10/26 05:17:32;;;;;;;1.70;1.20;;;;;;;11.61;100.00;98477.47;4116434;28;20222;-47
2022/10/26 05:19:34;;;;;;;1.83;1.73;;;;;;;11.61;100.00;98491.19;4106642;28;20242;-46
2022/10/26 05:21:35;;;;;;;9.50;1.17;;;;;;;11.63;100.00;98486.28;4110601;28;20202;-46
2022/10/26 05:23:37;;;;;;;1.30;1.20;;;;;;;11.77;100.00;98498.47;4102002;28;20234;-47
2022/10/26 05:25:39;;;;;;;1.80;1.50;;;;;;;11.75;100.00;98495.19;4115330;28;20230;-48
2022/10/26 05:27:41;;;;;;;1.48;1.40;;;;;;;11.84;100.00;98493.63;4114704;28;20218;-46
2022/10/26 05:29:43;;;;;;;1.40;1.27;;;;;;;11.81;100.00;98490.56;4111478;28;20285;-46
2022/10/26 05:31:44;;;;;;;1.40;1.30;;;;;;;11.84;100.00;98501.84;4114908;28;20211;-49
2022/10/26 05:33:50;;;;;;;2.00;1.30;;;;;;;11.87;100.00;98504.09;4119884;28;20206;-48
2022/10/26 05:35:54;;;;;;;2.00;1.42;;;;;;;11.83;100.00;98505.69;4110229;28;20257;-47
2022/10/26 05:37:57;;;;;;;1.30;1.23;;;;;;;11.95;100.00;98505.50;4120129;28;20213;-47
2022/10/26 05:39:58;;;;;;;1.45;1.25;;;;;;;11.85;100.00;98511.72;4120248;28;20217;-47
2022/10/26 05:42:00;;;;;;;2.40;2.20;;;;;;;11.90;100.00;98513.72;4124276;28;20214;-47
2022/10/26 05:44:02;;;;;;;1.73;1.63;;;;;;;12.00;100.00;98513.81;4104840;28;20207;-46
2022/10/26 05:46:04;;;;;;;2.08;1.50;;;;;;;11.90;100.00;98524.69;4122098;28;20233;-46
2022/10/26 05:48:09;;;;;;;1.40;1.30;;;;;;;11.80;100.00;98525.41;4110921;28;20233;-47
2022/10/26 05:50:12;;;;;;;1.38;1.30;;;;;;;11.76;100.00;98517.94;4112160;28;20784;-46
2022/10/26 05:52:13;;;;;;;1.55;1.45;;;;;;;11.73;100.00;98519.28;4119683;28;20884;-47
2022/10/26 05:54:15;;;;;;;1.48;1.38;;;;;;;11.68;100.00;98527.44;4121129;28;20212;-47
2022/10/26 05:56:20;;;;;;;1.55;1.45;;;;;;;11.70;100.00;98525.28;4113228;28;20320;-47
2022/10/26 05:58:22;;;;;;;3.95;1.80;;;;;;;11.79;100.00;98529.22;4110357;28;20553;-47
2022/10/26 06:00:26;;;;;;;1.48;1.00;;;;;;;11.75;100.00;98530.81;4136293;28;20240;-47
2022/10/26 06:02:33;;;;;;;1.42;1.33;;;;;;;11.75;100.00;98535.47;4121936;28;20309;-47
2022/10/26 06:04:46;;;;;;;1.25;1.15;;;;;;;11.77;100.00;98536.84;4137326;28;23033;-47
2022/10/26 06:06:53;;;;;;;1.55;1.40;;;;;;;11.72;100.00;98534.06;4122160;28;20696;-47
2022/10/26 06:08:55;;;;;;;1.67;1.58;;;;;;;11.71;100.00;98537.06;4138035;28;20270;-48
2022/10/26 06:11:01;;;;;;;1.42;1.30;;;;;;;11.83;100.00;98546.81;4121127;28;20207;-46
2022/10/26 06:13:03;;;;;;;1.77;1.30;;;;;;;11.77;100.00;98553.31;4119097;28;20206;-48
2022/10/26 06:15:06;;;;;;;1.65;1.30;;;;;;;11.73;100.00;98546.72;4121488;28;20241;-48
2022/10/26 06:17:14;;;;;;;2.97;2.75;;;;;;;11.75;100.00;98555.50;4121404;28;20311;-47
2022/10/26 06:19:35;;;;;;;2.00;1.63;;;;;;;11.74;100.00;98553.84;4121151;28;20220;-48
2022/10/26 06:21:44;;;;;;;2.00;1.50;;;;;;;11.74;100.00;98553.84;4109418;28;20241;-47
2022/10/26 06:24:01;;;;;;;1.50;1.40;;;;;;;11.62;100.00;98550.41;4122694;28;20217;-46
2022/10/26 06:26:13;;;;;;;2.38;1.60;;;;;;;11.67;100.00;98564.19;4114835;28;20310;-47
2022/10/26 06:28:39;;;;;;;5.63;1.67;;;;;;;11.63;100.00;98556.72;4111487;28;20210;-46
2022/10/26 06:30:42;;;;;;;1.25;1.15;;;;;;;11.72;100.00;98572.44;4122622;28;20250;-46
2022/10/26 06:32:45;;;;;;;1.75;1.65;;;;;;;11.72;100.00;98577.91;4123885;28;20202;-46
2022/10/26 06:34:59;;;;;;;2.55;2.35;;;;;;;11.69;100.00;98574.84;4125444;28;20222;-46
2022/10/26 06:37:15;;;;;;;3.22;1.88;;;;;;;11.74;100.00;98586.72;4106912;28;20233;-46
2022/10/26 06:39:19;;;;;;;2.03;1.83;;;;;;;11.80;100.00;98582.97;4139264;28;20261;-47
2022/10/26 06:41:21;;;;;;;3.67;1.65;;;;;;;11.75;100.00;98585.66;4105214;28;20242;-47
2022/10/26 06:43:24;;;;;;;2.22;2.03;;;;;;;11.73;100.00;98584.25;4121507;28;21104;-47
2022/10/26 06:45:27;;;;;;;1.77;1.67;;;;;;;11.74;100.00;98584.00;4110335;28;20207;-46
2022/10/26 06:48:04;;;;;;;1.00;1.00;;;;;;;11.75;100.00;98587.53;4138663;28;20212;-47
2022/10/26 06:50:23;;;;;;;2.58;1.88;;;;;;;11.71;100.00;98592.72;4113606;28;20225;-47
2022/10/26 06:52:46;;;;;;;1.63;1.52;;;;;;;11.76;100.00;98598.25;4139334;28;20201;-46
2022/10/26 06:54:54;;;;;;;1.73;1.63;;;;;;;11.81;100.00;98594.75;4139380;28;20205;-46
2022/10/26 06:56:56;;;;;;;1.55;1.45;;;;;;;11.80;100.00;98606.81;4121663;28;20238;-47
2022/10/26 06:59:14;;;;;;;2.28;2.05;;;;;;;11.79;100.00;98600.50;4123772;28;20210;-48
2022/10/26 07:01:15;;;;;;;3.40;1.40;;;;;;;11.86;100.00;98605.78;4139539;28;20241;-46
2022/10/26 07:03:18;;;;;;;3.25;1.58;;;;;;;11.85;100.00;98604.13;4123131;28;20730;-47
2022/10/26 07:05:20;;;;;;;2.58;1.80;;;;;;;11.87;100.00;98613.75;4117987;28;20415;-47
2022/10/26 07:07:26;;;;;;;2.15;1.52;;;;;;;11.89;100.00;98617.06;4112315;28;20779;-46
2022/10/26 07:09:33;;;;;;;3.72;2.80;;;;;;;12.00;100.00;98615.28;4109155;28;20211;-47
2022/10/26 07:11:40;;;;;;;2.13;2.03;;;;;;;11.98;100.00;98610.03;4140650;28;20579;-47
2022/10/26 07:13:41;;;;;;;2.22;2.00;;;;;;;12.05;100.00;98607.94;4141210;28;20651;-46
2022/10/26 07:15:44;;;;;;;2.38;2.17;;;;;;;11.91;100.00;98609.41;4122507;28;20256;-46
2022/10/26 07:17:47;;;;;;;2.17;1.80;;;;;;;11.97;100.00;98608.38;4129075;28;20695;-46
2022/10/26 07:19:49;;;;;;;2.22;2.03;;;;;;;12.13;100.00;98615.72;4138500;28;20209;-46
2022/10/26 07:21:58;;;;;;;2.17;1.80;;;;;;;12.03;100.00;98606.56;4122602;28;20210;-46
2022/10/26 07:23:59;;;;;;;2.38;2.05;;;;;;;12.12;100.00;98608.56;4139009;28;20208;-47
2022/10/26 07:26:01;;;;;;;2.13;1.92;;;;;;;12.13;100.00;98607.50;4125929;28;20289;-45
2022/10/26 07:28:09;;;;;;;2.25;2.03;;;;;;;12.18;100.00;98621.25;4127810;28;20670;-46
2022/10/26 07:30:14;;;;;;;2.97;1.77;;;;;;;12.26;100.00;98629.03;4112174;28;20577;-47
2022/10/26 07:32:20;;;;;;;6.00;2.05;;;;;;;12.41;100.00;98642.91;4120838;28;20219;-46
2022/10/26 07:34:23;;;;;;;2.25;1.70;;;;;;;12.74;100.00;98637.19;4101071;28;20215;-48
2022/10/26 07:36:29;;;;;;;3.22;1.80;;;;;;;13.05;100.00;98646.56;4122463;28;20775;-46
2022/10/26 07:38:34;;;;;;;10.50;1.85;;;;;;;13.41;100.00;98645.72;4111600;28;20672;-48
2022/10/26 07:40:46;;;;;;;1.92;1.83;;;;;;;13.97;100.00;98645.75;4119358;28;20309;-48
2022/10/26 07:43:10;;;;;;;1.75;1.65;;;;;;;14.68;100.00;98644.06;4134262;28;20206;-46
2022/10/26 07:45:18;;;;;;;2.33;1.67;;;;;;;14.99;100.00;98652.09;4130161;28;20248;-46
2022/10/26 07:47:20;;;;;;;1.40;1.30;;;;;;;15.69;100.00;98654.81;4137387;28;20233;-49
2022/10/26 07:49:22;;;;;;;6.47;1.80;;;;;;;16.10;100.00;98656.34;4116880;28;20224;-46
2022/10/26 07:51:28;;;;;;;1.70;1.27;;;;;;;16.42;100.00;98656.78;4113051;28;20210;-48
2022/10/26 07:53:29;;;;;;;1.65;1.48;;;;;;;16.73;98.79;98652.75;4117678;28;20205;-48
2022/10/26 07:55:31;;;;;;;1.80;1.10;;;;;;;17.51;96.47;98654.38;4096247;28;20223;-46
2022/10/26 07:57:33;;;;;;;1.15;1.00;;;;;;;18.21;96.26;98659.13;4120017;28;20232;-47
2022/10/26 07:59:35;;;;;;;3.33;1.30;;;;;;;18.57;92.32;98658.41;4119160;28;20206;-46
2022/10/26 08:01:36;;;;;;;1.38;1.27;;;;;;;18.93;92.01;98658.72;4131032;28;20294;-47
2022/10/26 08:03:38;;;;;;;1.20;1.10;;;;;;;18.79;90.20;98666.94;4098908;28;20219;-48
2022/10/26 08:05:41;;;;;;;1.85;0.80;;;;;;;19.04;88.34;98669.34;4109688;28;20450;-46
2022/10/26 08:07:43;;;;;;;1.42;0.82;;;;;;;18.88;88.68;98673.50;4132325;28;20209;-48
2022/10/26 08:09:46;;;;;;;1.20;1.10;;;;;;;19.61;88.00;98670.94;4113645;28;20993;-48
2022/10/26 08:11:47;;;;;;;1.98;1.05;;;;;;;19.65;87.14;98670.03;4130773;28;20229;-46
2022/10/26 08:13:53;;;;;;;0.70;0.70;;;;;;;18.89;88.41;98665.97;4113343;28;20730;-47
2022/10/26 08:16:03;;;;;;;1.58;1.15;;;;;;;18.97;90.86;98671.69;4117408;28;20249;-47
2022/10/26 08:18:05;;;;;;;1.75;0.88;;;;;;;18.95;88.21;98676.72;4113848;28;20988;-47
2022/10/26 08:20:13;;;;;;;0.80;0.80;;;;;;;19.13;89.38;98683.38;4102592;28;20214;-46
2022/10/26 08:22:15;;;;;;;5.03;1.08;;;;;;;19.47;88.37;98697.84;4117528;28;20245;-46
2022/10/26 08:24:17;;;;;;;1.63;0.80;;;;;;;19.80;86.74;98699.50;4120503;28;20202;-46
2022/10/26 08:26:20;;;;;;;1.25;0.70;;;;;;;19.67;86.53;98700.28;4117746;28;20232;-46
2022/10/26 08:28:21;;;;;;;1.25;1.00;;;;;;;19.71;85.59;98699.34;4119853;28;20202;-46
2022/10/26 08:30:23;;;;;;;1.23;0.70;;;;;;;19.83;87.40;98707.19;4119338;28;20688;-46
2022/10/26 08:32:25;;;;;;;1.52;1.15;;;;;;;20.12;85.34;98697.50;4114948;28;20221;-46
2022/10/26 08:34:27;;;;;;;0.73;0.73;;;;;;;19.97;86.36;98700.53;4134918;28;20221;-47
2022/10/26 08:36:29;;;;;;;0.80;0.80;;;;;;;19.84;85.75;98700.53;4120521;28;20799;-46
2022/10/26 08:38:32;;;;;;;2.20;0.90;;;;;;;19.39;86.49;98704.09;4135098;28;20706;-53
2022/10/26 08:40:40;;;;;;;2.65;0.90;;;;;;;19.59;87.38;98709.31;4119115;28;20206;-46
2022/10/26 08:42:44;;;;;;;1.40;0.95;;;;;;;19.46;86.43;98710.88;4104248;28;21022;-45
2022/10/26 08:44:48;;;;;;;2.35;1.85;;;;;;;19.16;88.08;98707.72;4130991;28;20214;-47
2022/10/26 08:46:56;;;;;;;1.00;0.75;;;;;;;19.15;88.39;98698.59;4121070;28;20236;-46
2022/10/26 08:49:18;;;;;;;2.30;0.73;;;;;;;19.39;87.91;98704.09;4133067;28;20225;-46
2022/10/26 08:51:23;;;;;;;3.00;0.90;;;;;;;19.20;88.77;98709.66;4105269;28;20676;-48
2022/10/26 08:53:52;;;;;;;0.68;0.57;;;;;;;19.05;89.10;98709.03;4117516;28;20317;-47
2022/10/26 08:55:59;;;;;;;2.95;0.80;;;;;;;18.76;91.10;98716.63;4117720;28;20229;-46
2022/10/26 08:58:02;;;;;;;1.70;1.00;;;;;;;18.18;92.52;98715.94;4135258;28;20215;-47
2022/10/26 09:00:06;;;;;;;1.02;0.93;;;;;;;18.11;93.43;98721.00;4133900;28;20237;-45
2022/10/26 09:02:12;;;;;;;1.08;0.70;;;;;;;18.04;93.39;98725.25;4121828;28;20241;-45
2022/10/26 09:04:15;;;;;;;2.22;0.73;;;;;;;17.97;94.59;98721.97;4135497;28;20293;-45
2022/10/26 09:06:31;;;;;;;0.73;0.73;;;;;;;17.94;94.55;98714.28;4120293;28;20261;-46
2022/10/26 09:08:39;;;;;;;1.77;1.00;;;;;;;17.66;95.59;98727.00;4116492;28;20234;-44
2022/10/26 09:11:05;;;;;;;1.48;0.80;;;;;;;17.62;96.29;98725.94;4117458;28;20597;-45
2022/10/26 09:13:31;;;;;;;1.00;0.90;;;;;;;17.45;97.20;98727.47;4120581;28;20797;-46
2022/10/26 09:16:07;;;;;;;1.20;0.80;;;;;;;17.62;97.41;98733.41;4119422;28;20234;-46
2022/10/26 09:18:24;;;;;;;1.65;1.00;;;;;;;17.90;95.56;98746.44;4136402;28;20237;-45
2022/10/26 09:20:38;;;;;;;2.40;0.93;;;;;;;18.50;93.77;98735.56;4136843;28;20586;-45
2022/10/26 09:23:04;;;;;;;1.33;1.23;;;;;;;18.99;92.39;98735.19;4117020;28;20238;-45
2022/10/26 09:25:17;;;;;;;1.45;0.68;;;;;;;19.41;89.99;98741.53;4119162;28;21120;-47
2022/10/26 09:27:30;;;;;;;2.05;1.33;;;;;;;19.29;87.99;98743.09;4119547;28;20205;-45
2022/10/26 09:29:39;;;;;;;1.90;1.15;;;;;;;18.81;90.10;98742.38;4117877;28;20837;-48
2022/10/26 09:31:44;;;;;;;0.68;0.68;;;;;;;18.75;91.73;98742.72;4120635;28;20315;-45
2022/10/26 09:33:46;;;;;;;0.73;0.65;;;;;;;18.75;91.67;98759.34;4120908;28;20245;-46
2022/10/26 09:35:51;;;;;;;0.65;0.65;;;;;;;19.39;90.45;98752.09;4103489;28;20260;-47
2022/10/26 09:38:14;;;;;;;1.60;0.70;;;;;;;19.86;86.99;98759.38;4135464;28;20778;-46
2022/10/26 09:40:24;;;;;;;1.00;0.50;;;;;;;19.81;86.76;98765.00;4130777;28;20402;-45
2022/10/26 09:42:40;;;;;;;4.07;1.00;;;;;;;19.94;86.58;98756.75;4120968;28;20240;-45
2022/10/26 09:44:53;;;;;;;2.13;1.00;;;;;;;20.10;85.60;98762.88;4105617;28;20350;-45
2022/10/26 09:47:04;;;;;;;0.93;0.70;;;;;;;20.73;83.33;98763.84;4118662;28;20225;-46
2022/10/26 09:49:07;;;;;;;1.02;0.73;;;;;;;21.00;83.78;98772.22;4112039;28;20222;-46